createdAt,value
2018-08-18T00:01:42.643Z,15.80
2018-08-18T00:04:22.735Z,15.80
2018-08-18T00:06:51.873Z,15.80
2018-08-18T00:09:21.586Z,15.80
2018-08-18T00:11:54.095Z,15.80
2018-08-18T00:14:22.900Z,15.80
2018-08-18T00:16:52.382Z,15.80
2018-08-18T00:19:22.429Z,15.80
2018-08-18T00:21:51.983Z,15.70
2018-08-18T00:24:22.563Z,15.70
2018-08-18T00:26:51.509Z,15.70
2018-08-18T00:29:21.525Z,15.70
2018-08-18T00:31:50.466Z,15.70
2018-08-18T00:34:18.921Z,15.70
2018-08-18T00:36:48.076Z,15.60
2018-08-18T00:39:17.032Z,15.60
2018-08-18T00:41:46.021Z,15.60
2018-08-18T00:44:14.882Z,15.60
2018-08-18T00:46:45.125Z,15.60
2018-08-18T00:49:13.972Z,15.60
2018-08-18T00:51:43.519Z,15.60
2018-08-18T00:54:12.496Z,15.60
2018-08-18T00:56:41.735Z,15.60
2018-08-18T00:59:12.038Z,15.60
2018-08-18T01:01:41.516Z,15.60
2018-08-18T01:04:13.967Z,15.60
2018-08-18T01:06:43.532Z,15.60
2018-08-18T01:09:15.073Z,15.60
2018-08-18T01:11:45.256Z,15.60
2018-08-18T01:14:19.217Z,15.60
2018-08-18T01:16:53.801Z,15.60
2018-08-18T01:19:25.625Z,15.60
2018-08-18T01:21:58.268Z,15.60
2018-08-18T01:24:29.177Z,15.60
2018-08-18T01:26:59.680Z,15.50
2018-08-18T01:29:28.634Z,15.50
2018-08-18T01:31:57.750Z,15.50
2018-08-18T01:34:26.532Z,15.50
2018-08-18T01:36:55.277Z,15.50
2018-08-18T01:39:24.061Z,15.50
2018-08-18T01:41:55.257Z,15.40
2018-08-18T01:44:26.597Z,15.40
2018-08-18T01:46:55.576Z,15.40
2018-08-18T01:49:33.065Z,15.50
2018-08-18T01:52:05.235Z,15.50
2018-08-18T01:54:35.191Z,15.50
2018-08-18T01:57:08.959Z,15.50
2018-08-18T01:59:39.608Z,15.50
2018-08-18T02:02:27.764Z,15.50
2018-08-18T02:05:06.045Z,15.50
2018-08-18T02:07:36.116Z,15.50
2018-08-18T02:10:06.353Z,15.60
2018-08-18T02:12:35.796Z,15.50
2018-08-18T02:15:05.376Z,15.50
2018-08-18T02:17:35.582Z,15.50
2018-08-18T02:20:08.997Z,15.50
2018-08-18T02:22:37.553Z,15.60
2018-08-18T02:25:11.484Z,15.50
2018-08-18T02:27:41.847Z,15.60
2018-08-18T02:30:18.624Z,15.60
2018-08-18T02:32:47.225Z,15.60
2018-08-18T02:35:17.771Z,15.60
2018-08-18T02:37:47.164Z,15.50
2018-08-18T02:40:18.505Z,15.50
2018-08-18T02:42:47.803Z,15.60
2018-08-18T02:45:17.436Z,15.50
2018-08-18T02:47:47.114Z,15.50
2018-08-18T02:50:16.139Z,15.60
2018-08-18T02:52:45.362Z,15.50
2018-08-18T02:55:14.979Z,15.50
2018-08-18T02:57:44.823Z,15.50
2018-08-18T03:00:23.571Z,15.60
2018-08-18T03:02:54.001Z,15.60
2018-08-18T03:05:23.789Z,15.60
2018-08-18T03:07:53.234Z,15.60
2018-08-18T03:10:25.025Z,15.60
2018-08-18T03:12:58.909Z,15.60
2018-08-18T03:16:14.002Z,15.60
2018-08-18T03:18:47.916Z,15.60
2018-08-18T03:21:17.685Z,15.60
2018-08-18T03:23:59.253Z,15.60
2018-08-18T03:26:33.126Z,15.60
2018-08-18T03:29:03.024Z,15.60
2018-08-18T03:31:31.546Z,15.60
2018-08-18T03:34:00.907Z,15.60
2018-08-18T03:36:33.349Z,15.70
2018-08-18T03:39:03.127Z,15.70
2018-08-18T03:41:32.895Z,15.70
2018-08-18T03:44:04.433Z,15.70
2018-08-18T03:46:33.906Z,15.70
2018-08-18T03:49:03.822Z,15.70
2018-08-18T03:51:37.809Z,15.70
2018-08-18T03:54:07.878Z,15.70
2018-08-18T03:56:37.325Z,15.70
2018-08-18T03:59:06.061Z,15.70
2018-08-18T04:01:56.604Z,15.70
2018-08-18T04:04:30.308Z,15.80
2018-08-18T04:07:00.534Z,15.70
2018-08-18T04:09:34.966Z,15.70
2018-08-18T04:12:06.304Z,15.80
2018-08-18T04:14:41.284Z,15.70
2018-08-18T04:17:23.028Z,15.70
2018-08-18T04:19:52.600Z,15.70
2018-08-18T04:22:23.983Z,15.70
2018-08-18T04:24:52.471Z,15.70
2018-08-18T04:27:35.498Z,15.70
2018-08-18T04:30:06.833Z,15.80
2018-08-18T04:32:49.182Z,15.70
2018-08-18T04:35:22.220Z,15.80
2018-08-18T04:37:52.662Z,15.80
2018-08-18T04:40:28.794Z,15.80
2018-08-18T04:42:58.833Z,15.80
2018-08-18T04:45:28.140Z,15.80
2018-08-18T04:47:56.815Z,15.80
2018-08-18T04:50:29.867Z,15.80
2018-08-18T04:53:06.483Z,15.90
2018-08-18T04:55:36.049Z,15.90
2018-08-18T04:58:05.088Z,15.90
2018-08-18T05:00:34.720Z,15.90
2018-08-18T05:03:10.108Z,15.90
2018-08-18T05:05:41.377Z,15.90
2018-08-18T05:08:10.372Z,16.00
2018-08-18T05:10:40.235Z,16.00
2018-08-18T05:13:09.144Z,16.00
2018-08-18T05:15:39.256Z,16.10
2018-08-18T05:18:09.168Z,16.10
2018-08-18T05:20:39.032Z,16.10
2018-08-18T05:23:21.091Z,16.20
2018-08-18T05:25:53.180Z,16.20
2018-08-18T05:28:22.403Z,16.20
2018-08-18T05:30:54.153Z,16.30
2018-08-18T05:33:26.563Z,16.30
2018-08-18T05:36:00.442Z,16.30
2018-08-18T05:38:34.668Z,16.40
2018-08-18T05:41:05.956Z,16.40
2018-08-18T05:43:41.235Z,16.50
2018-08-18T05:46:10.713Z,16.50
2018-08-18T05:48:39.552Z,16.60
2018-08-18T05:51:13.818Z,16.60
2018-08-18T05:53:47.720Z,16.70
2018-08-18T05:56:17.329Z,16.70
2018-08-18T05:58:58.047Z,16.70
2018-08-18T06:01:33.242Z,16.80
2018-08-18T06:04:11.689Z,16.90
2018-08-18T06:06:41.515Z,16.90
2018-08-18T06:09:16.640Z,17.00
2018-08-18T06:11:52.933Z,17.10
2018-08-18T06:14:22.131Z,17.20
2018-08-18T06:16:52.607Z,17.30
2018-08-18T06:19:22.659Z,17.40
2018-08-18T06:21:56.706Z,17.60
2018-08-18T06:24:26.065Z,17.70
2018-08-18T06:26:57.677Z,17.70
2018-08-18T06:29:27.316Z,17.80
2018-08-18T06:32:02.328Z,17.90
2018-08-18T06:34:38.108Z,17.90
2018-08-18T06:37:07.162Z,18.00
2018-08-18T06:39:50.642Z,18.00
2018-08-18T06:42:30.999Z,18.00
2018-08-18T06:45:00.174Z,18.00
2018-08-18T06:47:30.384Z,18.00
2018-08-18T06:49:58.851Z,18.00
2018-08-18T06:52:33.079Z,18.00
2018-08-18T06:55:03.319Z,18.00
2018-08-18T06:57:47.956Z,18.00
2018-08-18T07:00:19.447Z,18.00
2018-08-18T07:02:53.747Z,18.00
2018-08-18T07:05:34.023Z,18.10
2018-08-18T07:08:04.884Z,18.30
2018-08-18T07:10:35.563Z,18.50
2018-08-18T07:13:08.052Z,18.60
2018-08-18T07:15:38.803Z,18.60
2018-08-18T07:18:10.936Z,18.70
2018-08-18T07:20:39.890Z,18.70
2018-08-18T07:23:08.872Z,18.80
2018-08-18T07:25:43.435Z,18.80
2018-08-18T07:28:12.159Z,18.90
2018-08-18T07:30:41.688Z,18.90
2018-08-18T07:33:10.580Z,18.90
2018-08-18T07:35:39.409Z,18.80
2018-08-18T07:38:07.913Z,18.90
2018-08-18T07:40:51.944Z,19.00
2018-08-18T07:43:23.497Z,19.10
2018-08-18T07:45:53.207Z,19.20
2018-08-18T07:48:21.840Z,19.40
2018-08-18T07:50:51.598Z,19.60
2018-08-18T07:53:20.714Z,19.80
2018-08-18T07:55:49.434Z,19.90
2018-08-18T07:58:21.527Z,20.00
2018-08-18T08:00:49.927Z,20.10
2018-08-18T08:03:20.786Z,20.10
2018-08-18T08:05:50.433Z,20.20
2018-08-18T08:08:18.971Z,20.20
2018-08-18T08:10:47.929Z,20.30
2018-08-18T08:13:17.201Z,20.30
2018-08-18T08:15:47.222Z,20.40
2018-08-18T08:18:16.135Z,20.60
2018-08-18T08:20:45.366Z,20.70
2018-08-18T08:23:13.972Z,21.00
2018-08-18T08:25:42.640Z,21.10
2018-08-18T08:28:11.828Z,21.30
2018-08-18T08:30:40.920Z,21.60
2018-08-18T08:33:09.973Z,21.90
2018-08-18T08:35:38.537Z,22.10
2018-08-18T08:38:07.109Z,22.30
2018-08-18T08:40:35.752Z,22.50
2018-08-18T08:43:04.472Z,22.50
2018-08-18T08:45:33.514Z,22.40
2018-08-18T08:48:02.013Z,22.40
2018-08-18T08:50:30.907Z,22.40
2018-08-18T08:52:59.445Z,22.50
2018-08-18T08:55:29.082Z,22.60
2018-08-18T08:57:58.277Z,22.60
2018-08-18T09:00:27.073Z,22.60
2018-08-18T09:02:55.750Z,22.60
2018-08-18T09:05:27.374Z,22.50
2018-08-18T09:07:55.928Z,22.50
2018-08-18T09:10:24.586Z,22.40
2018-08-18T09:12:53.072Z,22.30
2018-08-18T09:15:23.147Z,22.40
2018-08-18T09:17:54.528Z,22.50
2018-08-18T09:20:24.221Z,22.60
2018-08-18T09:22:57.178Z,22.50
2018-08-18T09:25:27.662Z,22.60
2018-08-18T09:27:57.561Z,22.60
2018-08-18T09:30:28.902Z,22.70
2018-08-18T09:33:00.709Z,22.80
2018-08-18T09:35:29.194Z,22.70
2018-08-18T09:38:01.692Z,22.70
2018-08-18T09:40:32.043Z,22.70
2018-08-18T09:43:08.749Z,22.60
2018-08-18T09:45:38.437Z,22.60
2018-08-18T09:48:07.245Z,22.50
2018-08-18T09:50:36.033Z,22.40
2018-08-18T09:53:05.587Z,22.40
2018-08-18T09:55:35.148Z,22.50
2018-08-18T09:58:06.933Z,22.70
2018-08-18T10:00:39.634Z,22.60
2018-08-18T10:03:08.522Z,22.50
2018-08-18T10:05:38.025Z,22.40
2018-08-18T10:08:10.105Z,22.40
2018-08-18T10:10:39.422Z,22.30
2018-08-18T10:13:07.976Z,22.30
2018-08-18T10:15:39.640Z,22.20
2018-08-18T10:18:09.443Z,22.10
2018-08-18T10:20:43.701Z,22.10
2018-08-18T10:23:12.837Z,22.10
2018-08-18T10:25:45.888Z,22.10
2018-08-18T10:28:18.310Z,22.00
2018-08-18T10:30:46.963Z,22.00
2018-08-18T10:33:15.724Z,22.00
2018-08-18T10:35:44.498Z,21.90
2018-08-18T10:38:16.150Z,21.90
2018-08-18T10:40:45.285Z,22.10
2018-08-18T10:43:19.432Z,22.20
2018-08-18T10:45:48.684Z,22.20
2018-08-18T10:48:27.202Z,22.30
2018-08-18T10:51:20.138Z,22.20
2018-08-18T10:53:50.761Z,22.20
2018-08-18T10:56:19.858Z,22.30
2018-08-18T10:59:18.446Z,22.50
2018-08-18T11:02:04.971Z,22.70
2018-08-18T11:04:35.192Z,22.70
2018-08-18T11:07:04.659Z,22.70
2018-08-18T11:09:34.249Z,22.60
2018-08-18T11:12:03.819Z,22.70
2018-08-18T11:14:33.012Z,22.70
2018-08-18T11:17:02.899Z,22.80
2018-08-18T11:19:36.828Z,22.80
2018-08-18T11:22:21.084Z,22.80
2018-08-18T11:24:49.578Z,22.70
2018-08-18T11:27:18.746Z,22.80
2018-08-18T11:29:55.253Z,23.00
2018-08-18T11:32:29.913Z,23.30
2018-08-18T11:35:03.288Z,23.50
2018-08-18T11:37:32.434Z,23.60
2018-08-18T11:40:02.331Z,23.60
2018-08-18T11:42:30.993Z,23.70
2018-08-18T11:44:59.769Z,24.00
2018-08-18T11:47:28.709Z,24.00
2018-08-18T11:49:56.974Z,24.00
2018-08-18T11:52:25.621Z,24.20
2018-08-18T11:54:54.368Z,24.40
2018-08-18T11:57:23.007Z,24.40
2018-08-18T11:59:51.903Z,24.50
2018-08-18T12:02:20.495Z,24.30
2018-08-18T12:04:49.208Z,24.50
2018-08-18T12:07:18.248Z,24.60
2018-08-18T12:09:52.816Z,24.50
2018-08-18T12:12:21.526Z,24.60
2018-08-18T12:14:50.176Z,24.60
2018-08-18T12:17:18.976Z,24.50
2018-08-18T12:19:49.769Z,24.50
2018-08-18T12:22:18.216Z,24.40
2018-08-18T12:24:51.325Z,24.20
2018-08-18T12:27:19.585Z,24.00
2018-08-18T12:29:48.405Z,23.80
2018-08-18T12:32:21.034Z,23.70
2018-08-18T12:34:49.574Z,23.50
2018-08-18T12:37:18.236Z,23.40
2018-08-18T12:39:47.369Z,23.30
2018-08-18T12:42:23.155Z,23.10
2018-08-18T12:44:51.977Z,23.00
2018-08-18T12:47:23.530Z,22.90
2018-08-18T12:49:53.409Z,22.80
2018-08-18T12:52:22.082Z,22.80
2018-08-18T12:54:50.558Z,22.90
2018-08-18T12:57:31.688Z,22.90
2018-08-18T13:00:00.736Z,22.90
2018-08-18T13:02:48.772Z,23.00
2018-08-18T13:05:17.744Z,23.20
2018-08-18T13:07:46.924Z,23.40
2018-08-18T13:10:22.133Z,23.40
2018-08-18T13:12:51.434Z,23.40
2018-08-18T13:15:20.546Z,23.60
2018-08-18T13:17:50.255Z,23.60
2018-08-18T13:20:23.833Z,23.70
2018-08-18T13:22:52.588Z,23.70
2018-08-18T13:25:21.269Z,23.80
2018-08-18T13:27:53.912Z,23.90
2018-08-18T13:30:23.475Z,23.80
2018-08-18T13:32:54.606Z,23.90
2018-08-18T13:35:24.091Z,23.80
2018-08-18T13:37:53.290Z,23.90
2018-08-18T13:40:28.070Z,23.90
2018-08-18T13:42:56.231Z,23.80
2018-08-18T13:45:42.053Z,23.80
2018-08-18T13:48:12.277Z,23.60
2018-08-18T13:50:41.373Z,23.90
2018-08-18T13:53:11.376Z,24.00
2018-08-18T13:55:41.736Z,24.50
2018-08-18T13:58:12.417Z,24.60
2018-08-18T14:00:42.541Z,24.50
2018-08-18T14:03:28.047Z,24.70
2018-08-18T14:05:56.987Z,24.70
2018-08-18T14:08:26.034Z,24.60
2018-08-18T14:10:54.648Z,24.60
2018-08-18T14:13:23.621Z,24.60
2018-08-18T14:15:58.109Z,24.50
2018-08-18T14:18:26.964Z,24.60
2018-08-18T14:21:03.020Z,24.60
2018-08-18T14:23:31.698Z,24.60
2018-08-18T14:26:00.225Z,24.60
2018-08-18T14:28:30.169Z,24.50
2018-08-18T14:30:58.889Z,24.30
2018-08-18T14:33:27.433Z,24.10
2018-08-18T14:36:05.476Z,24.00
2018-08-18T14:38:34.100Z,24.00
2018-08-18T14:41:02.808Z,24.00
2018-08-18T14:43:36.672Z,23.90
2018-08-18T14:46:07.074Z,23.80
2018-08-18T14:48:36.199Z,23.80
2018-08-18T14:51:05.792Z,23.60
2018-08-18T14:53:34.316Z,23.50
2018-08-18T14:56:08.517Z,23.40
2018-08-18T14:58:38.802Z,23.30
2018-08-18T15:01:12.622Z,23.30
2018-08-18T15:03:41.939Z,23.30
2018-08-18T15:06:12.112Z,23.30
2018-08-18T15:08:40.751Z,23.30
2018-08-18T15:11:09.353Z,23.30
2018-08-18T15:13:41.583Z,23.10
2018-08-18T15:16:10.758Z,23.00
2018-08-18T15:18:39.657Z,23.00
2018-08-18T15:21:08.482Z,22.90
2018-08-18T15:23:37.691Z,22.90
2018-08-18T15:26:06.818Z,22.90
2018-08-18T15:28:36.572Z,22.80
2018-08-18T15:31:05.241Z,22.80
2018-08-18T15:33:33.996Z,22.70
2018-08-18T15:36:02.593Z,22.70
2018-08-18T15:38:43.056Z,22.60
2018-08-18T15:41:13.484Z,22.60
2018-08-18T15:43:44.973Z,22.40
2018-08-18T15:46:13.824Z,22.40
2018-08-18T15:48:42.475Z,22.30
2018-08-18T15:51:11.149Z,22.30
2018-08-18T15:53:54.519Z,22.20
2018-08-18T15:56:26.729Z,22.20
2018-08-18T15:58:57.252Z,22.10
2018-08-18T16:01:28.406Z,22.00
2018-08-18T16:04:02.203Z,22.00
2018-08-18T16:06:30.629Z,21.90
2018-08-18T16:09:02.249Z,21.90
2018-08-18T16:11:31.119Z,22.20
2018-08-18T16:13:59.679Z,22.30
2018-08-18T16:16:28.090Z,22.30
2018-08-18T16:19:03.016Z,22.30
2018-08-18T16:21:33.916Z,22.20
2018-08-18T16:24:02.677Z,22.20
2018-08-18T16:26:31.411Z,22.20
2018-08-18T16:29:00.114Z,22.10
2018-08-18T16:31:28.649Z,22.00
2018-08-18T16:33:57.625Z,22.00
2018-08-18T16:36:27.072Z,22.00
2018-08-18T16:38:55.545Z,21.90
2018-08-18T16:41:24.880Z,21.90
2018-08-18T16:43:53.287Z,21.90
2018-08-18T16:46:26.562Z,21.80
2018-08-18T16:48:56.621Z,21.90
2018-08-18T16:51:25.426Z,21.90
2018-08-18T16:53:54.001Z,21.90
2018-08-18T16:56:26.316Z,21.80
2018-08-18T16:58:56.866Z,21.70
2018-08-18T17:01:26.295Z,21.70
2018-08-18T17:03:58.012Z,21.70
2018-08-18T17:06:26.960Z,21.70
2018-08-18T17:08:55.752Z,21.70
2018-08-18T17:11:24.305Z,21.70
2018-08-18T17:13:53.085Z,21.70
2018-08-18T17:16:22.781Z,21.70
2018-08-18T17:18:51.352Z,21.70
2018-08-18T17:21:21.332Z,21.70
2018-08-18T17:23:49.680Z,21.60
2018-08-18T17:26:18.428Z,21.60
2018-08-18T17:28:47.198Z,21.60
2018-08-18T17:31:15.836Z,21.60
2018-08-18T17:33:44.605Z,21.60
2018-08-18T17:36:13.258Z,21.60
2018-08-18T17:38:41.997Z,21.60
2018-08-18T17:41:11.213Z,21.60
2018-08-18T17:43:40.429Z,21.60
2018-08-18T17:46:09.103Z,21.50
2018-08-18T17:48:43.172Z,21.50
2018-08-18T17:51:12.514Z,21.40
2018-08-18T17:53:47.300Z,21.40
2018-08-18T17:56:15.789Z,21.40
2018-08-18T17:58:45.071Z,21.40
2018-08-18T18:01:16.724Z,21.40
2018-08-18T18:03:45.329Z,21.30
2018-08-18T18:06:14.001Z,21.30
2018-08-18T18:08:42.922Z,21.20
2018-08-18T18:11:11.408Z,21.20
2018-08-18T18:13:40.112Z,21.10
2018-08-18T18:16:21.102Z,21.10
2018-08-18T18:18:49.768Z,21.10
2018-08-18T18:21:18.461Z,21.00
2018-08-18T18:23:47.236Z,21.00
2018-08-18T18:26:15.914Z,21.00
2018-08-18T18:28:44.588Z,21.00
2018-08-18T18:31:14.501Z,21.00
2018-08-18T18:33:43.366Z,21.00
2018-08-18T18:36:12.283Z,20.90
2018-08-18T18:38:53.338Z,20.80
2018-08-18T18:41:21.670Z,20.80
2018-08-18T18:43:56.938Z,20.80
2018-08-18T18:46:26.234Z,20.80
2018-08-18T18:48:55.396Z,20.70
2018-08-18T18:51:23.713Z,20.70
2018-08-18T18:53:53.012Z,20.70
2018-08-18T18:56:22.281Z,20.70
2018-08-18T18:58:51.090Z,20.60
2018-08-18T19:01:20.622Z,20.60
2018-08-18T19:03:49.603Z,20.50
2018-08-18T19:06:18.312Z,20.50
2018-08-18T19:08:59.754Z,20.50
2018-08-18T19:11:28.861Z,20.40
2018-08-18T19:13:57.687Z,20.50
2018-08-18T19:16:26.231Z,20.40
2018-08-18T19:18:54.943Z,20.40
2018-08-18T19:21:29.958Z,20.30
2018-08-18T19:23:58.375Z,20.30
2018-08-18T19:26:36.037Z,20.30
2018-08-18T19:29:05.862Z,20.30
2018-08-18T19:31:35.798Z,20.30
2018-08-18T19:34:10.154Z,20.20
2018-08-18T19:36:52.114Z,20.20
2018-08-18T19:39:20.986Z,20.10
2018-08-18T19:41:50.162Z,20.10
2018-08-18T19:44:18.828Z,20.00
2018-08-18T19:46:47.665Z,20.00
2018-08-18T19:49:27.839Z,20.00
2018-08-18T19:51:59.016Z,19.90
2018-08-18T19:54:28.129Z,19.90
2018-08-18T19:56:56.844Z,19.80
2018-08-18T19:59:25.470Z,19.80
2018-08-18T20:01:54.675Z,19.70
2018-08-18T20:04:23.860Z,19.70
2018-08-18T20:06:52.617Z,19.70
2018-08-18T20:09:21.370Z,19.60
2018-08-18T20:11:50.252Z,19.60
2018-08-18T20:14:19.022Z,19.50
2018-08-18T20:16:47.665Z,19.50
2018-08-18T20:19:16.368Z,19.40
2018-08-18T20:21:46.505Z,19.40
2018-08-18T20:24:15.618Z,19.30
2018-08-18T20:26:44.285Z,19.30
2018-08-18T20:29:13.108Z,19.20
2018-08-18T20:31:54.797Z,19.20
2018-08-18T20:34:26.232Z,19.10
2018-08-18T20:36:55.824Z,19.10
2018-08-18T20:39:26.523Z,19.10
2018-08-18T20:41:56.587Z,19.00
2018-08-18T20:44:27.714Z,19.00
2018-08-18T20:46:57.041Z,18.90
2018-08-18T20:49:25.458Z,18.90
2018-08-18T20:51:54.285Z,18.90
2018-08-18T20:54:22.820Z,18.80
2018-08-18T20:56:51.493Z,18.80
2018-08-18T20:59:21.702Z,18.70
2018-08-18T21:01:53.952Z,18.70
2018-08-18T21:04:22.957Z,18.70
2018-08-18T21:06:51.663Z,18.60
2018-08-18T21:09:28.606Z,18.60
2018-08-18T21:11:57.193Z,18.60
2018-08-18T21:14:28.968Z,18.60
2018-08-18T21:16:57.712Z,18.50
2018-08-18T21:19:27.112Z,18.50
2018-08-18T21:21:57.486Z,18.40
2018-08-18T21:27:03.378Z,18.40
2018-08-18T21:29:32.066Z,18.40
2018-08-18T21:32:00.830Z,18.40
2018-08-18T21:34:32.394Z,18.30
2018-08-18T21:37:01.687Z,18.30
2018-08-18T21:39:31.521Z,18.30
2018-08-18T21:42:00.949Z,18.20
2018-08-18T21:44:29.594Z,18.20
2018-08-18T21:46:58.381Z,18.20
2018-08-18T21:49:26.924Z,18.10
2018-08-18T21:51:57.389Z,18.10
2018-08-18T21:54:27.703Z,18.10
2018-08-18T21:59:58.921Z,18.10
2018-08-18T22:02:39.350Z,18.00
2018-08-18T22:05:11.032Z,18.00
2018-08-18T22:07:43.334Z,18.00
2018-08-18T22:10:12.217Z,18.00
2018-08-18T22:12:41.152Z,17.90
2018-08-18T22:15:16.854Z,17.90
2018-08-18T22:17:46.421Z,17.90
2018-08-18T22:20:15.917Z,17.90
2018-08-18T22:22:44.937Z,17.90
2018-08-18T22:25:14.202Z,17.80
2018-08-18T22:27:43.305Z,17.80
2018-08-18T22:30:14.140Z,17.80
2018-08-18T22:32:44.084Z,17.80
2018-08-18T22:35:13.616Z,17.70
2018-08-18T22:38:02.512Z,17.70
2018-08-18T22:40:31.687Z,17.70
2018-08-18T22:43:00.262Z,17.70
2018-08-18T22:45:31.271Z,17.60
2018-08-18T22:48:00.581Z,17.60
2018-08-18T22:50:29.520Z,17.60
2018-08-18T22:52:58.082Z,17.60
2018-08-18T22:55:26.807Z,17.60
2018-08-18T22:58:02.096Z,17.60
2018-08-18T23:00:34.799Z,17.60
2018-08-18T23:03:04.968Z,17.60
2018-08-18T23:05:33.784Z,17.60
2018-08-18T23:08:03.325Z,17.60
2018-08-18T23:10:37.715Z,17.60
2018-08-18T23:13:06.925Z,17.50
2018-08-18T23:15:38.790Z,17.60
2018-08-18T23:18:07.621Z,17.50
2018-08-18T23:20:37.343Z,17.60
2018-08-18T23:23:06.317Z,17.60
2018-08-18T23:25:35.823Z,17.60
2018-08-18T23:28:04.728Z,17.50
2018-08-18T23:30:37.458Z,17.50
2018-08-18T23:33:09.221Z,17.60
2018-08-18T23:35:39.016Z,17.60
2018-08-18T23:38:08.619Z,17.60
2018-08-18T23:40:37.423Z,17.50
2018-08-18T23:43:07.141Z,17.60
2018-08-18T23:45:42.148Z,17.60
2018-08-18T23:48:37.425Z,17.50
2018-08-18T23:51:11.804Z,17.60
2018-08-18T23:53:40.917Z,17.60
2018-08-18T23:56:09.313Z,17.60
2018-08-18T23:58:39.528Z,17.60
